Time;durP1;ratioP1;P1;durP2;ratioP2;P2;SDS_P1;SDS_P2;PMS_P1;PMS_P2;Temp;Humidity;BMP_temperature;BMP_pressure;BME280_temperature;BME280_humidity;BME280_pressure;Samples;Min_cycle;Max_cycle;Signal;HPM_P1;HPM_P2
2023/09/08 00:01:49;;;;;;;3.88;3.50;;;16.00;99.90;;;;;;5000592;28;20069;-82
2023/09/08 00:04:15;;;;;;;3.17;2.88;;;15.90;99.90;;;;;;5002186;28;20029;-85
2023/09/08 00:06:41;;;;;;;8.30;4.00;;;15.80;99.90;;;;;;4985085;28;20349;-78
2023/09/08 00:09:07;;;;;;;5.50;3.58;;;15.80;99.90;;;;;;4981901;28;20046;-85
2023/09/08 00:11:32;;;;;;;8.95;4.03;;;15.90;99.90;;;;;;4983536;28;20101;-81
2023/09/08 00:13:58;;;;;;;5.10;3.20;;;15.70;99.90;;;;;;4979003;28;20029;-85
2023/09/08 00:16:24;;;;;;;5.65;3.58;;;15.90;99.90;;;;;;4999117;28;20523;-86
2023/09/08 00:18:50;;;;;;;6.05;3.40;;;15.90;99.90;;;;;;4991746;28;20029;-85
2023/09/08 00:21:15;;;;;;;4.45;3.53;;;15.90;99.90;;;;;;4973670;28;20195;-81
2023/09/08 00:23:41;;;;;;;4.65;3.75;;;15.90;99.90;;;;;;4973406;28;20118;-82
2023/09/08 00:26:07;;;;;;;3.72;3.30;;;15.80;99.90;;;;;;4972262;28;20062;-83
2023/09/08 00:28:37;;;;;;;7.07;3.53;;;15.70;99.90;;;;;;4992395;28;20034;-78
2023/09/08 00:31:02;;;;;;;;;;;15.60;99.90;;;;;;4990088;28;20036;-81
2023/09/08 00:33:28;;;;;;;4.72;4.20;;;15.60;99.90;;;;;;4975446;28;19981;-81
2023/09/08 00:36:05;;;;;;;5.65;3.90;;;15.70;99.90;;;;;;4992069;28;20022;-81
2023/09/08 00:38:31;;;;;;;7.63;4.32;;;15.90;99.90;;;;;;4997029;28;20026;-81
2023/09/08 00:40:56;;;;;;;6.07;4.63;;;15.90;99.90;;;;;;4974514;28;20030;-80
2023/09/08 00:43:22;;;;;;;4.30;3.53;;;16.00;99.90;;;;;;4992876;28;20034;-83
2023/09/08 00:45:48;;;;;;;5.10;3.75;;;16.00;99.90;;;;;;4993234;28;20018;-83
2023/09/08 00:48:14;;;;;;;4.78;3.70;;;16.10;99.90;;;;;;4992907;28;20153;-83
2023/09/08 00:50:39;;;;;;;5.32;4.53;;;16.00;99.90;;;;;;4992685;28;20566;-81
2023/09/08 00:53:06;;;;;;;8.10;3.75;;;16.00;99.90;;;;;;4992587;28;20356;-83
2023/09/08 00:55:33;;;;;;;6.90;4.95;;;15.90;99.90;;;;;;4975437;28;20427;-84
2023/09/08 00:57:59;;;;;;;4.55;3.65;;;16.00;99.90;;;;;;4975106;28;20474;-83
2023/09/08 01:00:25;;;;;;;3.42;2.97;;;15.80;99.90;;;;;;4975848;28;20114;-83
2023/09/08 01:02:51;;;;;;;3.53;3.15;;;15.80;99.90;;;;;;4976717;28;20022;-81
2023/09/08 01:05:17;;;;;;;3.25;2.97;;;15.70;99.90;;;;;;4976036;28;20034;-83
2023/09/08 01:07:44;;;;;;;6.60;3.95;;;15.70;99.90;;;;;;4975405;28;20485;-80
2023/09/08 01:10:10;;;;;;;4.43;3.45;;;15.60;99.90;;;;;;4994108;28;20042;-82
2023/09/08 01:12:36;;;;;;;5.28;3.65;;;15.60;99.90;;;;;;4976346;28;20505;-81
2023/09/08 01:15:03;;;;;;;4.20;3.35;;;15.60;99.90;;;;;;4976344;28;20026;-82
2023/09/08 01:17:28;;;;;;;5.25;3.67;;;15.60;99.90;;;;;;4975811;28;20101;-82
2023/09/08 01:19:56;;;;;;;5.25;3.53;;;15.60;99.90;;;;;;4993037;28;20455;-81
2023/09/08 01:22:59;;;;;;;4.43;3.65;;;15.60;99.90;;;;;;4975813;28;20018;-82
2023/09/08 01:25:26;;;;;;;5.15;4.07;;;15.60;99.90;;;;;;4993619;28;20031;-79
2023/09/08 01:27:54;;;;;;;4.68;4.15;;;15.60;99.90;;;;;;4993665;28;20022;-80
2023/09/08 01:30:23;;;;;;;8.85;3.92;;;15.60;99.90;;;;;;4976062;28;20038;-81
2023/09/08 01:32:50;;;;;;;4.95;4.47;;;15.60;99.90;;;;;;4993394;28;20046;-81
2023/09/08 01:35:15;;;;;;;7.35;3.15;;;15.50;99.90;;;;;;4992870;28;20053;-82
2023/09/08 01:37:46;;;;;;;4.35;4.03;;;15.60;99.90;;;;;;4975340;28;20026;-81
2023/09/08 01:40:12;;;;;;;7.35;3.47;;;15.60;99.90;;;;;;4993101;28;20214;-82
2023/09/08 01:42:39;;;;;;;3.20;2.92;;;15.60;99.90;;;;;;4993205;28;20072;-81
2023/09/08 01:45:05;;;;;;;5.38;3.53;;;15.60;99.90;;;;;;4975528;28;20892;-81
2023/09/08 01:47:31;;;;;;;6.30;4.43;;;15.60;99.90;;;;;;4975602;28;20440;-82
2023/09/08 01:49:57;;;;;;;3.92;3.53;;;15.60;99.90;;;;;;4974736;28;20050;-83
2023/09/08 01:52:22;;;;;;;5.15;3.50;;;15.60;99.90;;;;;;4974239;28;20117;-83
2023/09/08 01:54:48;;;;;;;3.95;3.58;;;15.50;99.90;;;;;;4975322;28;20113;-81
2023/09/08 01:57:13;;;;;;;5.68;4.00;;;15.50;99.90;;;;;;4992961;28;20101;-83
2023/09/08 01:59:39;;;;;;;5.07;3.13;;;15.50;99.90;;;;;;4992838;28;20089;-82
2023/09/08 02:02:06;;;;;;;11.80;4.30;;;15.40;99.90;;;;;;4993193;28;20511;-82
2023/09/08 02:04:31;;;;;;;3.90;3.15;;;15.40;99.90;;;;;;4992610;28;20046;-81
2023/09/08 02:06:58;;;;;;;7.45;3.63;;;15.30;99.90;;;;;;4975203;28;20030;-82
2023/09/08 02:09:31;;;;;;;5.50;4.00;;;15.30;99.90;;;;;;4975090;28;20415;-81
2023/09/08 02:11:57;;;;;;;7.68;4.30;;;15.30;99.90;;;;;;4975350;28;20386;-80
2023/09/08 02:14:22;;;;;;;6.05;3.75;;;15.30;99.90;;;;;;4992677;28;20040;-82
2023/09/08 02:16:48;;;;;;;3.83;3.40;;;15.30;99.90;;;;;;4975046;28;20446;-81
2023/09/08 02:19:14;;;;;;;4.32;3.55;;;15.30;99.90;;;;;;4975007;28;20030;-83
2023/09/08 02:21:39;;;;;;;7.82;3.95;;;15.20;99.90;;;;;;4992852;28;20193;-82
2023/09/08 02:24:05;;;;;;;5.18;3.47;;;15.30;99.90;;;;;;4993098;28;20026;-82
2023/09/08 02:26:33;;;;;;;4.55;4.15;;;15.30;99.90;;;;;;4975273;28;20030;-83
2023/09/08 02:28:59;;;;;;;5.25;3.08;;;15.20;99.90;;;;;;4974758;28;20092;-81
2023/09/08 02:31:26;;;;;;;3.72;2.85;;;15.20;99.90;;;;;;4974858;28;20030;-82
2023/09/08 02:33:51;;;;;;;4.18;3.45;;;15.20;99.90;;;;;;4974406;28;20271;-80
2023/09/08 02:36:17;;;;;;;10.82;4.20;;;15.20;99.90;;;;;;4975018;28;20588;-82
2023/09/08 02:38:43;;;;;;;6.38;3.85;;;15.10;99.90;;;;;;4992235;28;20022;-81
2023/09/08 02:41:08;;;;;;;3.47;3.17;;;15.00;99.90;;;;;;4974729;28;20022;-83
2023/09/08 02:43:34;;;;;;;5.30;3.85;;;15.10;99.90;;;;;;4992201;28;20027;-82
2023/09/08 02:46:00;;;;;;;3.58;2.83;;;15.00;99.90;;;;;;4992005;28;20455;-81
2023/09/08 02:48:25;;;;;;;4.32;3.83;;;15.00;99.90;;;;;;4974236;28;20494;-83
2023/09/08 02:50:51;;;;;;;5.18;3.88;;;15.00;99.90;;;;;;4974378;28;20069;-81
2023/09/08 02:53:17;;;;;;;5.90;4.07;;;14.90;99.90;;;;;;4974790;28;20022;-82
2023/09/08 02:55:42;;;;;;;7.82;4.10;;;14.90;99.90;;;;;;4991898;28;20146;-82
2023/09/08 02:58:08;;;;;;;5.55;3.38;;;15.00;99.90;;;;;;4974048;28;20022;-82
2023/09/08 03:00:33;;;;;;;3.42;3.08;;;14.90;99.90;;;;;;4974384;28;20045;-83
2023/09/08 03:03:02;;;;;;;5.22;3.50;;;15.00;99.90;;;;;;4991495;28;20054;-82
2023/09/08 03:05:28;;;;;;;4.68;4.00;;;14.90;99.90;;;;;;4991415;28;20030;-82
2023/09/08 03:07:53;;;;;;;10.00;4.10;;;14.90;99.90;;;;;;4974367;28;20049;-83
2023/09/08 03:10:19;;;;;;;3.42;3.13;;;14.90;99.90;;;;;;4991575;28;20038;-84
2023/09/08 03:12:44;;;;;;;3.40;3.10;;;14.90;99.90;;;;;;4974367;28;20026;-83
2023/09/08 03:15:10;;;;;;;8.23;3.00;;;14.90;99.90;;;;;;4974374;28;20026;-83
2023/09/08 03:17:36;;;;;;;3.22;2.90;;;14.80;99.90;;;;;;4974348;28;20022;-81
2023/09/08 03:20:04;;;;;;;2.75;2.55;;;14.80;99.90;;;;;;4973578;28;20026;-83
2023/09/08 03:22:30;;;;;;;4.13;3.00;;;14.80;99.90;;;;;;4991325;28;20043;-84
2023/09/08 03:24:55;;;;;;;5.30;3.33;;;14.70;99.90;;;;;;4973766;28;20202;-83
2023/09/08 03:27:21;;;;;;;3.45;3.15;;;14.70;99.90;;;;;;4974155;28;20440;-81
2023/09/08 03:29:46;;;;;;;3.38;3.08;;;14.70;99.90;;;;;;4991405;28;20049;-81
2023/09/08 03:32:12;;;;;;;4.13;2.97;;;14.70;99.90;;;;;;4991711;28;20510;-83
2023/09/08 03:34:39;;;;;;;4.05;3.33;;;14.60;99.90;;;;;;4973867;28;20124;-84
2023/09/08 03:37:05;;;;;;;2.88;2.58;;;14.70;99.90;;;;;;4974033;28;20034;-84
2023/09/08 03:39:30;;;;;;;3.38;2.80;;;14.60;99.90;;;;;;4991249;28;20022;-85
2023/09/08 03:41:56;;;;;;;10.40;3.08;;;14.60;99.90;;;;;;4973884;28;20065;-81
2023/09/08 03:44:22;;;;;;;3.67;2.47;;;14.60;99.90;;;;;;4991322;28;20057;-83
2023/09/08 03:46:47;;;;;;;3.35;2.58;;;14.60;99.90;;;;;;4991426;28;20031;-83
2023/09/08 03:49:13;;;;;;;2.72;2.00;;;14.60;99.90;;;;;;4974134;28;20086;-84
2023/09/08 03:51:39;;;;;;;2.78;2.30;;;14.60;99.90;;;;;;4974280;28;20018;-81
2023/09/08 03:54:06;;;;;;;3.38;3.08;;;14.60;99.90;;;;;;4974472;28;20041;-81
2023/09/08 03:56:31;;;;;;;2.40;2.17;;;14.60;99.90;;;;;;4974520;28;20019;-84
2023/09/08 03:58:57;;;;;;;2.75;2.53;;;14.50;99.90;;;;;;4991538;28;20027;-84
2023/09/08 04:01:22;;;;;;;5.60;2.55;;;14.50;99.90;;;;;;4973816;28;20419;-83
2023/09/08 04:03:48;;;;;;;3.03;2.72;;;14.40;99.90;;;;;;4989813;28;20345;-82
2023/09/08 04:06:13;;;;;;;6.53;2.75;;;14.50;99.90;;;;;;4973830;28;20072;-84
2023/09/08 04:08:39;;;;;;;2.83;2.63;;;14.50;99.90;;;;;;4996737;28;20045;-83
2023/09/08 04:11:05;;;;;;;3.17;2.88;;;14.50;99.90;;;;;;4978797;28;20029;-84
2023/09/08 04:13:30;;;;;;;3.38;2.95;;;14.40;99.90;;;;;;4975170;28;20262;-82
2023/09/08 04:16:02;;;;;;;4.43;3.15;;;14.50;99.90;;;;;;4978692;28;20030;-82
2023/09/08 04:18:28;;;;;;;5.30;3.60;;;14.50;99.90;;;;;;4974768;28;20487;-79
2023/09/08 04:20:53;;;;;;;2.70;2.50;;;14.40;99.90;;;;;;4974615;28;20037;-79
2023/09/08 04:23:25;;;;;;;3.58;2.85;;;14.40;99.90;;;;;;4985530;28;20094;-82
2023/09/08 04:25:51;;;;;;;2.70;2.10;;;14.40;99.90;;;;;;4977052;28;20030;-82
2023/09/08 04:28:17;;;;;;;3.20;2.80;;;14.30;99.90;;;;;;4974390;28;20026;-82
2023/09/08 04:30:42;;;;;;;3.33;2.50;;;14.30;99.90;;;;;;4974728;28;20080;-82
2023/09/08 04:33:08;;;;;;;3.22;2.80;;;14.30;99.90;;;;;;4974414;28;20490;-85
2023/09/08 04:35:33;;;;;;;2.75;2.55;;;14.40;99.90;;;;;;4972803;28;20030;-84
2023/09/08 04:37:59;;;;;;;3.78;2.95;;;14.30;99.90;;;;;;4991194;28;20029;-82
2023/09/08 04:40:28;;;;;;;6.32;3.58;;;14.20;99.90;;;;;;4975734;28;20041;-82
2023/09/08 04:42:56;;;;;;;4.28;3.50;;;14.20;99.90;;;;;;4995902;28;20027;-84
2023/09/08 04:45:22;;;;;;;6.18;4.63;;;14.20;99.90;;;;;;4976786;28;20033;-79
2023/09/08 04:47:53;;;;;;;13.35;4.55;;;14.30;99.90;;;;;;4971344;28;20598;-83
2023/09/08 04:50:24;;;;;;;5.40;4.60;;;14.30;99.90;;;;;;5008907;28;20030;-82
2023/09/08 04:52:50;;;;;;;;;;;14.30;99.90;;;;;;4979858;28;20033;-84
2023/09/08 04:55:22;;;;;;;4.75;4.28;;;14.30;99.90;;;;;;4976239;28;19905;-84
2023/09/08 04:57:47;;;;;;;9.40;5.47;;;14.40;99.90;;;;;;4977240;28;20426;-84
2023/09/08 05:00:13;;;;;;;5.20;3.67;;;14.40;99.90;;;;;;4974229;28;20069;-82
2023/09/08 05:02:39;;;;;;;7.10;3.20;;;14.40;99.90;;;;;;4990615;28;20114;-82
2023/09/08 05:05:05;;;;;;;6.30;3.58;;;14.40;99.90;;;;;;4974073;28;20121;-86
2023/09/08 05:07:30;;;;;;;5.82;4.43;;;14.40;99.90;;;;;;4973749;28;20084;-86
2023/09/08 05:09:56;;;;;;;5.90;3.65;;;14.40;99.90;;;;;;4973005;28;20034;-85
2023/09/08 05:12:22;;;;;;;5.72;3.63;;;14.50;99.90;;;;;;4990366;28;20101;-82
2023/09/08 05:15:00;;;;;;;7.53;3.47;;;14.50;99.90;;;;;;4976624;28;20034;-83
2023/09/08 05:17:26;;;;;;;6.47;3.28;;;14.50;99.90;;;;;;4991737;28;20018;-83
2023/09/08 05:19:52;;;;;;;3.67;3.00;;;14.40;99.90;;;;;;4993460;28;20045;-84
2023/09/08 05:22:17;;;;;;;4.05;2.75;;;14.40;99.90;;;;;;4977894;28;20664;-84
2023/09/08 05:24:43;;;;;;;3.38;3.08;;;14.40;99.90;;;;;;4990949;28;20098;-83
2023/09/08 05:27:11;;;;;;;3.05;2.75;;;14.30;99.90;;;;;;4976995;28;20033;-83
2023/09/08 05:29:37;;;;;;;5.32;3.45;;;14.40;99.90;;;;;;4994731;28;20038;-82
2023/09/08 05:32:03;;;;;;;6.05;3.88;;;14.50;99.90;;;;;;4993574;28;20100;-83
2023/09/08 05:34:28;;;;;;;5.55;3.60;;;14.50;99.90;;;;;;4975988;28;20042;-84
2023/09/08 05:36:54;;;;;;;4.97;3.88;;;14.60;99.90;;;;;;4976050;28;20050;-83
2023/09/08 05:39:20;;;;;;;8.40;4.20;;;14.60;99.90;;;;;;4976306;28;20050;-85
2023/09/08 05:41:46;;;;;;;5.90;3.58;;;14.70;99.90;;;;;;4976131;28;20061;-83
2023/09/08 05:44:11;;;;;;;3.78;3.42;;;14.90;99.90;;;;;;4975884;28;20336;-82
2023/09/08 05:46:37;;;;;;;4.05;3.15;;;14.90;99.90;;;;;;4975831;28;20089;-84
2023/09/08 05:49:02;;;;;;;4.72;3.90;;;15.10;99.90;;;;;;4975437;28;20145;-85
2023/09/08 05:51:28;;;;;;;6.18;3.30;;;15.20;99.90;;;;;;4976044;28;20108;-83
2023/09/08 05:53:54;;;;;;;4.65;3.40;;;15.20;99.90;;;;;;4975893;28;20027;-85
2023/09/08 05:56:20;;;;;;;6.07;4.18;;;15.30;99.90;;;;;;4976030;28;20037;-84
2023/09/08 05:58:45;;;;;;;5.40;4.22;;;15.30;99.90;;;;;;4975864;28;20030;-84
2023/09/08 06:01:11;;;;;;;5.38;3.55;;;15.40;99.90;;;;;;4993217;28;20030;-81
2023/09/08 06:03:37;;;;;;;5.32;3.70;;;15.50;99.90;;;;;;4975207;28;20077;-83
2023/09/08 06:06:02;;;;;;;5.82;3.75;;;15.50;99.90;;;;;;4975973;28;20288;-82
2023/09/08 06:08:28;;;;;;;5.07;4.57;;;15.60;99.90;;;;;;4975556;28;20025;-86
2023/09/08 06:10:54;;;;;;;4.47;3.38;;;15.70;99.90;;;;;;4975626;28;20453;-83
2023/09/08 06:13:19;;;;;;;5.35;3.08;;;15.70;99.90;;;;;;4975833;28;20022;-85
2023/09/08 06:15:45;;;;;;;5.22;3.65;;;15.80;99.90;;;;;;4975631;28;20494;-86
2023/09/08 06:18:11;;;;;;;4.95;3.72;;;15.90;99.90;;;;;;4993201;28;20118;-86
2023/09/08 06:20:46;;;;;;;6.93;4.03;;;16.00;99.90;;;;;;4975494;28;20023;-84
2023/09/08 06:23:12;;;;;;;8.18;4.05;;;16.10;99.90;;;;;;4993574;28;20062;-86
2023/09/08 06:25:38;;;;;;;6.53;4.50;;;16.20;99.90;;;;;;4975476;28;20061;-87
2023/09/08 06:28:03;;;;;;;4.85;4.35;;;16.40;99.90;;;;;;4974622;28;20037;-84
2023/09/08 06:30:29;;;;;;;8.77;3.65;;;16.50;99.90;;;;;;4973908;28;20068;-83
2023/09/08 06:32:55;;;;;;;3.50;3.05;;;16.70;99.90;;;;;;4974357;28;20018;-85
2023/09/08 06:35:20;;;;;;;6.70;4.72;;;16.80;99.90;;;;;;4973738;28;20022;-85
2023/09/08 06:37:46;;;;;;;4.90;3.67;;;17.00;99.90;;;;;;4973840;28;20026;-85
2023/09/08 06:40:11;;;;;;;6.50;4.30;;;17.10;99.90;;;;;;4974479;28;20030;-84
2023/09/08 06:42:37;;;;;;;5.45;4.20;;;17.40;99.90;;;;;;4991998;28;20023;-84
2023/09/08 06:45:03;;;;;;;5.75;4.40;;;17.50;99.90;;;;;;4973470;28;20045;-82
2023/09/08 06:47:29;;;;;;;7.70;4.65;;;17.70;99.90;;;;;;4973220;28;20045;-85
2023/09/08 06:49:54;;;;;;;6.93;5.43;;;17.80;99.90;;;;;;4990380;28;20518;-85
2023/09/08 06:52:20;;;;;;;4.85;4.15;;;17.90;99.90;;;;;;4973499;28;20507;-85
2023/09/08 06:54:47;;;;;;;4.95;4.00;;;17.70;99.90;;;;;;4973706;28;20071;-84
2023/09/08 06:57:13;;;;;;;7.80;4.28;;;18.10;99.90;;;;;;4973484;28;20022;-84
2023/09/08 06:59:39;;;;;;;5.18;3.78;;;18.20;99.90;;;;;;4974777;28;20436;-85
2023/09/08 07:02:04;;;;;;;15.90;4.50;;;18.30;99.90;;;;;;4992113;28;20101;-85
2023/09/08 07:04:31;;;;;;;7.07;4.45;;;18.40;99.90;;;;;;4991787;28;20022;-86
2023/09/08 07:06:56;;;;;;;4.88;4.13;;;18.60;99.90;;;;;;4975062;28;20537;-85
2023/09/08 07:09:22;;;;;;;7.07;4.25;;;18.80;99.90;;;;;;4992464;28;20117;-85
2023/09/08 07:11:48;;;;;;;6.05;4.65;;;19.00;99.90;;;;;;4992338;28;20037;-87
2023/09/08 07:14:13;;;;;;;4.63;4.22;;;19.10;99.90;;;;;;4975208;28;20117;-86
2023/09/08 07:16:39;;;;;;;8.40;5.15;;;19.20;99.90;;;;;;4993188;28;20022;-83
2023/09/08 07:19:05;;;;;;;4.68;4.03;;;19.30;99.90;;;;;;4973184;28;20034;-85
2023/09/08 07:21:30;;;;;;;5.45;3.65;;;19.50;99.90;;;;;;4972846;28;20104;-82
2023/09/08 07:23:56;;;;;;;9.50;4.97;;;19.60;99.90;;;;;;4989904;28;20030;-81
2023/09/08 07:26:22;;;;;;;6.93;4.75;;;19.80;99.90;;;;;;4972681;28;20546;-81
2023/09/08 07:28:48;;;;;;;12.98;4.32;;;20.00;99.90;;;;;;4972268;28;20525;-82
2023/09/08 07:31:14;;;;;;;5.32;4.47;;;20.00;99.90;;;;;;4972228;28;20116;-84
2023/09/08 07:33:40;;;;;;;4.72;3.67;;;20.10;99.90;;;;;;4989452;28;20057;-81
2023/09/08 07:36:07;;;;;;;7.05;4.18;;;20.20;99.90;;;;;;4989546;28;20101;-82
2023/09/08 07:38:33;;;;;;;6.10;3.67;;;20.40;99.90;;;;;;4971942;28;20735;-81
2023/09/08 07:41:02;;;;;;;6.65;4.38;;;20.40;99.90;;;;;;4989805;28;20026;-82
2023/09/08 07:43:28;;;;;;;5.63;3.97;;;20.60;99.90;;;;;;4972053;28;20471;-84
2023/09/08 07:45:54;;;;;;;4.35;3.95;;;20.70;99.90;;;;;;4971837;28;20186;-82
2023/09/08 07:48:19;;;;;;;5.47;4.13;;;20.90;99.90;;;;;;4973093;28;20102;-84
2023/09/08 07:50:45;;;;;;;6.32;3.60;;;21.00;99.90;;;;;;4989921;28;20042;-83
2023/09/08 07:53:11;;;;;;;3.63;3.33;;;21.20;99.90;;;;;;4973759;28;20033;-82
2023/09/08 07:55:37;;;;;;;6.40;4.22;;;21.40;99.90;;;;;;4973617;28;20030;-83
2023/09/08 07:58:06;;;;;;;5.55;3.47;;;21.40;99.90;;;;;;4990827;28;20026;-81
2023/09/08 08:00:31;;;;;;;;;;;21.40;99.90;;;;;;4974020;28;20061;-85
2023/09/08 08:02:58;;;;;;;6.13;3.90;;;21.50;99.90;;;;;;4973787;28;19941;-82
2023/09/08 08:05:24;;;;;;;4.85;3.85;;;21.80;99.90;;;;;;4973471;28;20465;-84
2023/09/08 08:07:50;;;;;;;5.85;3.78;;;21.90;99.90;;;;;;4990799;28;20077;-82
2023/09/08 08:10:16;;;;;;;6.03;4.30;;;21.90;99.90;;;;;;4973534;28;20049;-83
2023/09/08 08:12:42;;;;;;;4.97;3.72;;;22.00;99.90;;;;;;4973518;28;20026;-84
2023/09/08 08:15:10;;;;;;;6.65;3.95;;;22.10;99.90;;;;;;4973151;28;20443;-81
2023/09/08 08:17:36;;;;;;;6.78;4.53;;;22.30;99.90;;;;;;4973039;28;20125;-80
2023/09/08 08:20:08;;;;;;;4.78;3.55;;;22.50;99.90;;;;;;4973179;28;20022;-81
2023/09/08 08:22:34;;;;;;;3.65;3.25;;;22.60;99.90;;;;;;4990846;28;20410;-86
2023/09/08 08:25:00;;;;;;;6.45;4.10;;;23.30;99.90;;;;;;4972622;28;20565;-82
2023/09/08 08:27:26;;;;;;;4.35;3.60;;;24.50;99.90;;;;;;4971697;28;20109;-84
2023/09/08 08:29:52;;;;;;;3.78;3.47;;;25.70;99.90;;;;;;4988947;28;20125;-86
2023/09/08 08:32:17;;;;;;;7.63;3.30;;;26.40;99.90;;;;;;4989120;28;20027;-82
2023/09/08 08:34:44;;;;;;;7.85;4.03;;;26.90;99.90;;;;;;4989381;28;20037;-83
2023/09/08 08:37:10;;;;;;;3.70;3.35;;;27.20;99.90;;;;;;4971728;28;20036;-87
2023/09/08 08:39:36;;;;;;;5.47;4.15;;;27.40;99.90;;;;;;4972099;28;20033;-86
2023/09/08 08:42:11;;;;;;;4.47;3.40;;;28.20;99.90;;;;;;4973483;28;20137;-84
2023/09/08 08:44:38;;;;;;;4.53;3.63;;;28.70;99.90;;;;;;4973270;28;20033;-84
2023/09/08 08:47:09;;;;;;;7.15;3.78;;;28.80;99.80;;;;;;4972652;28;20076;-85
2023/09/08 08:49:36;;;;;;;4.43;3.40;;;28.90;98.80;;;;;;4972798;28;20038;-87
2023/09/08 08:52:06;;;;;;;4.00;3.58;;;28.30;99.60;;;;;;4973094;28;20062;-86
2023/09/08 08:54:35;;;;;;;4.68;3.67;;;28.00;99.80;;;;;;4972362;28;20345;-87
2023/09/08 08:57:01;;;;;;;4.10;3.63;;;27.60;99.90;;;;;;4983899;28;20018;-83
2023/09/08 08:59:27;;;;;;;3.85;3.55;;;27.60;99.90;;;;;;4992464;28;20091;-87
2023/09/08 09:01:55;;;;;;;6.97;3.28;;;27.50;99.90;;;;;;4993909;28;20025;-87
2023/09/08 09:04:21;;;;;;;4.03;3.63;;;27.40;99.90;;;;;;5004104;28;20034;-84
2023/09/08 09:06:47;;;;;;;3.50;2.92;;;27.40;99.90;;;;;;4974664;28;20502;-87
2023/09/08 09:09:13;;;;;;;3.65;3.35;;;27.30;99.90;;;;;;4974549;28;20049;-85
2023/09/08 09:11:40;;;;;;;5.40;3.47;;;27.20;99.90;;;;;;4993201;28;20045;-81
2023/09/08 09:14:06;;;;;;;4.20;3.58;;;27.60;99.90;;;;;;4974770;28;20475;-86
2023/09/08 09:16:39;;;;;;;5.05;3.25;;;28.00;99.90;;;;;;4975304;28;20030;-85
2023/09/08 09:19:05;;;;;;;6.57;3.22;;;28.40;98.60;;;;;;4974783;28;20113;-86
2023/09/08 09:21:46;;;;;;;3.83;3.53;;;28.70;98.60;;;;;;4975662;28;20550;-85
2023/09/08 09:24:16;;;;;;;7.15;3.97;;;28.70;96.90;;;;;;4993998;28;20042;-83
2023/09/08 09:26:42;;;;;;;4.05;3.50;;;28.80;95.60;;;;;;4976553;28;20038;-86
2023/09/08 09:29:14;;;;;;;8.15;3.65;;;28.60;95.40;;;;;;4977086;28;20030;-85
2023/09/08 09:32:04;;;;;;;3.90;3.60;;;28.60;95.50;;;;;;4976687;28;20030;-86
2023/09/08 09:34:29;;;;;;;3.53;3.22;;;28.60;95.50;;;;;;4967935;28;20487;-83
2023/09/08 09:36:55;;;;;;;3.50;3.20;;;28.60;94.50;;;;;;4994318;28;20037;-86
2023/09/08 09:39:23;;;;;;;4.88;3.17;;;28.70;94.20;;;;;;4977094;28;20026;-86
2023/09/08 09:41:53;;;;;;;5.60;3.15;;;28.60;94.00;;;;;;4994877;28;20101;-87
2023/09/08 09:44:19;;;;;;;3.53;3.15;;;28.60;93.40;;;;;;4993809;28;20103;-85
2023/09/08 09:46:48;;;;;;;5.70;3.08;;;28.70;92.60;;;;;;4977933;28;20030;-84
2023/09/08 09:49:19;;;;;;;4.38;3.33;;;28.50;92.70;;;;;;4976024;28;20218;-87
2023/09/08 09:51:47;;;;;;;4.22;3.33;;;28.50;93.20;;;;;;4976486;28;20026;-84
2023/09/08 09:54:13;;;;;;;3.45;3.15;;;28.60;93.10;;;;;;4976162;28;20029;-85
2023/09/08 09:56:39;;;;;;;3.13;2.92;;;28.80;93.00;;;;;;4976640;28;20088;-86
2023/09/08 09:59:08;;;;;;;3.15;2.95;;;28.90;93.20;;;;;;4993679;28;20030;-87
2023/09/08 10:01:35;;;;;;;;;;;29.20;92.80;;;;;;4976936;28;20379;-85
2023/09/08 10:04:03;;;;;;;4.65;3.30;;;29.30;92.00;;;;;;4993755;28;19906;-85
2023/09/08 10:06:33;;;;;;;7.70;3.20;;;29.30;91.90;;;;;;4977427;28;20090;-84
2023/09/08 10:09:05;;;;;;;4.30;3.45;;;29.50;92.30;;;;;;4995065;28;20076;-86
2023/09/08 10:11:42;;;;;;;3.58;3.28;;;29.80;91.60;;;;;;4974952;28;20022;-88
2023/09/08 10:14:11;;;;;;;3.97;3.03;;;30.00;91.40;;;;;;4991299;28;20037;-86
2023/09/08 10:16:40;;;;;;;2.80;2.33;;;30.40;91.40;;;;;;4975085;28;20053;-88
2023/09/08 10:19:09;;;;;;;3.35;2.70;;;30.70;91.30;;;;;;4975204;28;20037;-88
2023/09/08 10:21:41;;;;;;;3.33;3.00;;;30.40;89.60;;;;;;4991553;28;20030;-85
2023/09/08 10:24:18;;;;;;;7.10;3.53;;;30.20;90.70;;;;;;4992778;28;20558;-86
2023/09/08 10:26:50;;;;;;;3.38;2.85;;;30.30;90.60;;;;;;4975261;28;20035;-81
2023/09/08 10:29:16;;;;;;;3.90;3.08;;;30.40;89.30;;;;;;4973982;28;20130;-83
2023/09/08 10:31:43;;;;;;;4.45;3.10;;;30.40;88.50;;;;;;4973939;28;20537;-85
2023/09/08 10:34:10;;;;;;;4.22;3.33;;;30.70;88.80;;;;;;4991260;28;20081;-87
2023/09/08 10:36:36;;;;;;;6.28;3.08;;;30.50;86.00;;;;;;4974581;28;20019;-86
2023/09/08 10:39:30;;;;;;;4.10;2.90;;;30.40;86.30;;;;;;4974083;28;20431;-80
2023/09/08 10:42:20;;;;;;;4.85;2.85;;;29.70;85.90;;;;;;4975931;28;20026;-86
2023/09/08 10:44:49;;;;;;;4.10;2.45;;;29.90;87.10;;;;;;4975474;28;20034;-85
2023/09/08 10:47:26;;;;;;;4.03;3.00;;;30.30;85.60;;;;;;4992686;28;20418;-82
2023/09/08 10:49:53;;;;;;;5.93;2.90;;;30.60;84.80;;;;;;4974649;28;20065;-81
2023/09/08 10:52:25;;;;;;;6.07;2.88;;;31.00;83.60;;;;;;4975365;28;20387;-83
2023/09/08 10:54:52;;;;;;;2.25;2.13;;;31.20;80.60;;;;;;4975842;28;20031;-84
2023/09/08 10:57:23;;;;;;;2.30;2.20;;;30.80;79.90;;;;;;4973739;28;20118;-84
2023/09/08 11:00:10;;;;;;;4.30;2.95;;;31.00;78.40;;;;;;4974365;28;20034;-85
2023/09/08 11:02:48;;;;;;;2.22;2.13;;;31.30;77.90;;;;;;4991897;28;20483;-84
2023/09/08 11:05:15;;;;;;;2.87;2.23;;;31.70;78.20;;;;;;4974314;28;20029;-83
2023/09/08 11:07:43;;;;;;;3.20;2.53;;;31.50;78.70;;;;;;4973762;28;20472;-85
2023/09/08 11:10:09;;;;;;;3.90;2.58;;;31.50;75.40;;;;;;4972739;28;20216;-83
2023/09/08 11:12:35;;;;;;;2.45;2.25;;;31.70;75.00;;;;;;4989921;28;20545;-83
2023/09/08 11:15:07;;;;;;;3.58;2.42;;;31.80;75.00;;;;;;4989954;28;20158;-83
2023/09/08 11:17:34;;;;;;;4.40;2.60;;;31.40;75.40;;;;;;4972495;28;20365;-83
2023/09/08 11:20:00;;;;;;;2.80;2.60;;;30.80;77.20;;;;;;4972260;28;20033;-85
2023/09/08 11:22:26;;;;;;;2.35;2.03;;;30.70;77.00;;;;;;4990920;28;20031;-81
2023/09/08 11:25:04;;;;;;;3.10;2.50;;;30.50;77.50;;;;;;4973013;28;20022;-88
2023/09/08 11:27:30;;;;;;;3.75;2.15;;;30.70;76.10;;;;;;4974838;28;20026;-81
2023/09/08 11:29:57;;;;;;;2.65;2.40;;;30.30;75.30;;;;;;4974207;28;20042;-86
2023/09/08 11:32:23;;;;;;;7.43;1.90;;;30.20;76.60;;;;;;4974377;28;20093;-84
2023/09/08 11:34:48;;;;;;;3.95;2.33;;;30.40;76.90;;;;;;4975673;28;20130;-84
2023/09/08 11:37:18;;;;;;;2.78;2.53;;;30.40;76.70;;;;;;4973447;28;20106;-84
2023/09/08 11:39:45;;;;;;;3.17;2.38;;;30.10;76.90;;;;;;4971955;28;20027;-85
2023/09/08 11:42:13;;;;;;;4.35;2.60;;;29.80;76.90;;;;;;4973060;28;20022;-86
2023/09/08 11:44:39;;;;;;;3.15;2.15;;;30.20;76.70;;;;;;4990254;28;20535;-83
2023/09/08 11:47:10;;;;;;;4.72;2.63;;;30.30;76.20;;;;;;4989675;28;20077;-80
2023/09/08 11:49:40;;;;;;;4.63;2.25;;;30.70;75.30;;;;;;4992885;28;20030;-85
2023/09/08 11:52:06;;;;;;;3.20;2.90;;;31.20;76.90;;;;;;4975770;28;20018;-84
2023/09/08 11:54:34;;;;;;;9.60;2.78;;;31.70;72.70;;;;;;4975445;28;20038;-83
2023/09/08 11:57:05;;;;;;;8.63;2.50;;;32.40;71.30;;;;;;4975886;28;20023;-86
2023/09/08 11:59:33;;;;;;;3.38;2.20;;;33.30;70.00;;;;;;4976711;28;20049;-85
2023/09/08 12:01:59;;;;;;;2.30;1.80;;;34.40;68.40;;;;;;4974387;28;20022;-81
2023/09/08 12:04:25;;;;;;;3.90;2.00;;;35.60;65.20;;;;;;4972511;28;20030;-82
2023/09/08 12:06:52;;;;;;;2.42;2.22;;;36.50;63.40;;;;;;4972649;28;20390;-81
2023/09/08 12:09:20;;;;;;;3.08;1.92;;;37.40;62.60;;;;;;4973422;28;20528;-83
2023/09/08 12:11:46;;;;;;;1.70;1.60;;;37.20;60.90;;;;;;4972827;28;20065;-83
2023/09/08 12:14:13;;;;;;;4.25;2.15;;;37.10;61.60;;;;;;4990970;28;20050;-82
2023/09/08 12:16:40;;;;;;;6.53;2.38;;;37.50;60.90;;;;;;4973556;28;20025;-84
2023/09/08 12:19:06;;;;;;;1.85;1.73;;;37.60;59.80;;;;;;4990033;28;20182;-87
2023/09/08 12:21:34;;;;;;;4.35;1.85;;;36.90;59.50;;;;;;4976014;28;20483;-83
2023/09/08 12:24:00;;;;;;;1.85;1.60;;;36.70;60.30;;;;;;4990520;28;20234;-84
2023/09/08 12:26:26;;;;;;;4.25;2.33;;;37.10;59.80;;;;;;4973382;28;20026;-83
2023/09/08 12:28:51;;;;;;;2.70;2.05;;;36.90;59.80;;;;;;4990437;28;20498;-78
2023/09/08 12:31:18;;;;;;;2.90;2.20;;;36.20;59.70;;;;;;4990793;28;20077;-81
2023/09/08 12:33:44;;;;;;;3.20;2.20;;;35.30;60.90;;;;;;4973228;28;20171;-81
2023/09/08 12:36:17;;;;;;;2.85;2.15;;;35.50;61.20;;;;;;4991124;28;20022;-79
2023/09/08 12:38:51;;;;;;;2.15;1.98;;;36.40;60.00;;;;;;4977288;28;20150;-81
2023/09/08 12:41:17;;;;;;;2.60;2.40;;;37.90;59.30;;;;;;4977233;28;20039;-82
2023/09/08 12:43:43;;;;;;;3.58;2.05;;;39.10;58.10;;;;;;4977515;28;20027;-81
2023/09/08 12:46:08;;;;;;;2.47;2.28;;;38.90;57.70;;;;;;4994909;28;20464;-80
2023/09/08 12:48:34;;;;;;;2.20;2.00;;;37.80;57.80;;;;;;4977299;28;20046;-78